KBGR/BGR METAR and TAF weather

Enter ICAO airport designator
Station Type Date Time Source
KBGR METAR 2019/10/21 04:53 UTC NOAA

KBGR 210453Z 00000KT 10SM BKN150 08/07 A3008 RMK AO2 SLP185 T00830067 401391011


Station Type Date Time Source
KBGR Decoded METAR 2019/10/21 04:53 UTC NOAA

BANGOR INT'L AIRPORT, ME, United States (KBGR) 44-48N 068-49W 57M
Oct 21, 2019 - 12:53 AM EDT / 2019.10.21 0453 UTC
Wind: Calm:0
Visibility: 10 mile(s):0
Sky conditions: mostly cloudy
Temperature: 46.9 F (8.3 C)
Dew Point: 44.1 F (6.7 C)
Relative Humidity: 89%
Pressure (altimeter): 30.08 in. Hg (1018 hPa)
ob: KBGR 210453Z 00000KT 10SM BKN150 08/07 A3008 RMK AO2 SLP185 T00830067 401391011
cycle: 5

Station Type Date Time Source
KBGR TAF 2019/10/20 18:22 UTC NOAA

TAF KBGR 201720Z 2018/2118 20004KT P6SM FEW100
FM210200 00000KT P6SM SCT100
FM210900 00000KT P6SM SCT045

Example: see airport list